Capitol Logistics 247


KLAX
Los Angeles International Airport
Los Angeles, California, US
MMMX
Benito Juárez International Airport
Mexico City, , MX

Activity Log

Date Flight Route Aircraft Duration
12/14/2019 CPX247 PNDAH2 TCATE PPE UT10 ZCL UJ5 TIKEB TIKEB1C B763 3h 47m
08/05/2019 CPX247 PNDAH2 TCATE PPE UT10 ZCL UJ5 TIKEB TIKEB1C B763 3h 29m

Route Details

Aircraft Information
Primary: Boeing 767-300BDSF
Backup: Not Available
Route Data
Distance: 1351nm
Sched. Duration: 3h 10m
Avg. Duration: 3h 38m (+29m)
Times Flown: 2
Recm'd Route: PNDAH2 TCATE PPE UT10 ZCL UJ5 TIKEB TIKEB1C
Planned Altitude: 35,000ft
Origin Wx: KLAX 271753Z VRB04KT 10SM SCT250 26/M04 A3017 RMK AO2 SLP215 T02611039 10261 20144 51004
Dest. Wx: MMMX 271747Z 05005KT 5SM SKC 18/04 A3039 NOSIG RMK SLP177 52006 929 HZY CU 3RD QUAD
Notes:

Financial History
Total Freight: 137,174lbs
Average Load: 68,587lbs/flt
Fuel Used: 70,751lbs
Avg. Fuel Used: 35,376lbs/flt
Fuel Expense: $83,248
Avg. Fuel Expense: $41,624
Avg. Fuel Cost: $1.18/lbs
Total Gross Income: $196,954
Pilot Pay: $378
Total Expenses: $21,375
Total Revenue: $90,977
Average Revenue: $98,476.83